Time;durP1;ratioP1;P1;durP2;ratioP2;P2;SDS_P1;SDS_P2;PMS_P1;PMS_P2;Temp;Humidity;BMP_temperature;BMP_pressure;BME280_temperature;BME280_humidity;BME280_pressure;Samples;Min_cycle;Max_cycle;Signal;HPM_P1;HPM_P2
2022/06/28 00:01:40;;;;;;;;;;;22.40;75.60;;;;;;5017598;28;19936;-96
2022/06/28 00:04:05;;;;;;;;;;;22.50;76.00;;;;;;5017405;28;19992;-96
2022/06/28 00:06:31;;;;;;;;;;;22.60;75.30;;;;;;4999559;28;19940;-96
2022/06/28 00:08:57;;;;;;;;;;;22.70;75.80;;;;;;5017526;28;19939;-96
2022/06/28 00:11:22;;;;;;;;;;;22.80;75.70;;;;;;5017274;28;19993;-96
2022/06/28 00:13:48;;;;;;;;;;;22.80;75.50;;;;;;5017318;28;20407;-95
2022/06/28 00:16:16;;;;;;;;;;;22.80;75.30;;;;;;5017373;28;19942;-96
2022/06/28 00:18:42;;;;;;;;;;;22.90;75.70;;;;;;4999425;28;19944;-95
2022/06/28 00:21:09;;;;;;;;;;;22.90;76.00;;;;;;5017621;28;19945;-96
2022/06/28 00:23:36;;;;;;;;;;;22.90;77.00;;;;;;5016730;28;19981;-96
2022/06/28 00:26:02;;;;;;;;;;;22.90;76.30;;;;;;5017111;28;19961;-96
2022/06/28 00:28:27;;;;;;;;;;;22.90;76.40;;;;;;5017477;28;19994;-96
2022/06/28 00:30:53;;;;;;;;;;;22.90;76.30;;;;;;5017426;28;19936;-95
2022/06/28 00:33:18;;;;;;;;;;;22.80;76.80;;;;;;5016654;28;19946;-96
2022/06/28 00:35:44;;;;;;;;;;;22.70;77.10;;;;;;4999143;28;19948;-96
2022/06/28 00:38:11;;;;;;;;;;;22.70;77.20;;;;;;5017232;28;19946;-95
2022/06/28 00:40:47;;;;;;;;;;;22.60;77.20;;;;;;5016088;28;19943;-96
2022/06/28 00:43:14;;;;;;;;;;;22.50;77.20;;;;;;5016914;28;20432;-96
2022/06/28 00:45:41;;;;;;;;;;;22.50;77.20;;;;;;5016574;28;19979;-96
2022/06/28 00:48:07;;;;;;;;;;;22.50;77.20;;;;;;5016781;28;19994;-96
2022/06/28 00:50:34;;;;;;;;;;;22.40;77.00;;;;;;5016365;28;19942;-96
2022/06/28 00:53:00;;;;;;;;;;;22.50;77.00;;;;;;5016628;28;19949;-96
2022/06/28 00:55:26;;;;;;;;;;;22.50;77.10;;;;;;5016237;28;20501;-96
2022/06/28 00:57:51;;;;;;;;;;;22.50;76.90;;;;;;5016854;28;20024;-96
2022/06/28 01:00:17;;;;;;;;;;;22.60;77.40;;;;;;5016588;28;19992;-96
2022/06/28 01:02:43;;;;;;;;;;;22.50;77.10;;;;;;5016831;28;19954;-96
2022/06/28 01:05:08;;;;;;;;;;;22.40;77.10;;;;;;5016437;28;19949;-96
2022/06/28 01:07:34;;;;;;;;;;;22.30;77.30;;;;;;5016410;28;19936;-96
2022/06/28 01:10:00;;;;;;;;;;;22.30;77.80;;;;;;5016402;28;19946;-95
2022/06/28 01:12:25;;;;;;;;;;;22.20;78.00;;;;;;5016023;28;19968;-96
2022/06/28 01:14:51;;;;;;;;;;;22.10;77.90;;;;;;5016297;28;19958;-95
2022/06/28 01:17:17;;;;;;;;;;;21.90;78.00;;;;;;5016226;28;19948;-96
2022/06/28 01:19:42;;;;;;;;;;;21.80;78.30;;;;;;5016230;28;20039;-96
2022/06/28 01:22:10;;;;;;;;;;;21.70;78.70;;;;;;5015897;28;19998;-95
2022/06/28 01:24:35;;;;;;;;;;;21.70;79.30;;;;;;5015756;28;20046;-96
2022/06/28 01:27:01;;;;;;;;;;;21.80;79.20;;;;;;5015748;28;20422;-96
2022/06/28 01:29:27;;;;;;;;;;;21.80;79.10;;;;;;5015986;28;19943;-96
2022/06/28 01:31:53;;;;;;;;;;;21.70;79.30;;;;;;5015617;28;19940;-96
2022/06/28 01:34:19;;;;;;;;;;;21.70;79.60;;;;;;4997952;28;20019;-95
2022/06/28 01:36:45;;;;;;;;;;;21.70;79.40;;;;;;5016184;28;19945;-96
2022/06/28 01:39:10;;;;;;;;;;;21.70;79.30;;;;;;4997961;28;20034;-96
2022/06/28 01:41:36;;;;;;;;;;;21.80;79.10;;;;;;5016012;28;19946;-96
2022/06/28 01:44:06;;;;;;;;;;;21.80;78.70;;;;;;5015266;28;19948;-95
2022/06/28 01:46:33;;;;;;;;;;;21.70;78.40;;;;;;5015997;28;19966;-96
2022/06/28 01:48:58;;;;;;;;;;;21.60;78.00;;;;;;5015651;28;19974;-96
2022/06/28 01:51:24;;;;;;;;;;;21.40;78.50;;;;;;5014895;28;19988;-96
2022/06/28 01:53:49;;;;;;;;;;;21.40;78.50;;;;;;5015161;28;19962;-95
2022/06/28 01:56:16;;;;;;;;;;;21.40;78.50;;;;;;5015187;28;19937;-95
2022/06/28 01:58:41;;;;;;;;;;;21.40;78.40;;;;;;5015461;28;19946;-96
2022/06/28 02:01:07;;;;;;;;;;;21.50;78.30;;;;;;5015243;28;19941;-96
2022/06/28 02:03:33;;;;;;;;;;;21.50;77.60;;;;;;5015329;28;20035;-95
2022/06/28 02:05:59;;;;;;;;;;;21.50;77.10;;;;;;5015336;28;19970;-96
2022/06/28 02:08:25;;;;;;;;;;;21.50;76.50;;;;;;5015329;28;19944;-96
2022/06/28 02:10:50;;;;;;;;;;;21.60;76.70;;;;;;5015211;28;20319;-96
2022/06/28 02:13:16;;;;;;;;;;;21.80;76.10;;;;;;5015083;28;20353;-95
2022/06/28 02:15:42;;;;;;;;;;;21.80;75.90;;;;;;5015226;28;19978;-96
2022/06/28 02:18:07;;;;;;;;;;;22.00;76.80;;;;;;4997201;28;19942;-95
2022/06/28 02:20:33;;;;;;;;;;;22.00;76.30;;;;;;5014966;28;20408;-95
2022/06/28 02:22:59;;;;;;;;;;;21.90;76.20;;;;;;5015370;28;20312;-95
2022/06/28 02:25:24;;;;;;;;;;;21.90;76.50;;;;;;5014556;28;20069;-95
2022/06/28 02:27:51;;;;;;;;;;;21.70;76.10;;;;;;5014934;28;20316;-96
2022/06/28 02:30:17;;;;;;;;;;;21.50;76.50;;;;;;5014762;28;19946;-96
2022/06/28 02:32:43;;;;;;;;;;;21.50;79.00;;;;;;5014813;28;19941;-95
2022/06/28 02:40:37;;;;;;;;;;;21.40;82.00;;;;;;5014929;28;19947;-96
2022/06/28 02:43:02;;;;;;;;;;;21.50;81.30;;;;;;5014655;28;19949;-96
2022/06/28 02:45:30;;;;;;;;;;;21.40;80.50;;;;;;4996830;28;19944;-96
2022/06/28 02:47:56;;;;;;;;;;;21.30;79.30;;;;;;5014974;28;19939;-95
2022/06/28 02:50:21;;;;;;;;;;;21.30;78.50;;;;;;4996828;28;20316;-95
2022/06/28 02:52:47;;;;;;;;;;;21.30;78.70;;;;;;5014627;28;20042;-96
2022/06/28 02:55:13;;;;;;;;;;;21.30;78.70;;;;;;5014201;28;20035;-95
2022/06/28 02:57:39;;;;;;;;;;;21.30;78.50;;;;;;5014614;28;20040;-96
2022/06/28 03:00:15;;;;;;;;;;;21.20;77.60;;;;;;4996694;28;19991;-96
2022/06/28 03:02:41;;;;;;;;;;;21.30;78.50;;;;;;5014154;28;19951;-96
2022/06/28 03:05:08;;;;;;;;;;;21.30;78.60;;;;;;5014493;28;19953;-95
2022/06/28 03:07:34;;;;;;;;;;;21.30;78.00;;;;;;5014449;28;20472;-96
2022/06/28 03:10:00;;;;;;;;;;;21.30;77.50;;;;;;5014071;28;19992;-96
2022/06/28 03:12:26;;;;;;;;;;;21.30;77.20;;;;;;5014412;28;20043;-95
2022/06/28 03:14:52;;;;;;;;;;;21.20;77.50;;;;;;5014035;28;20049;-96
2022/06/28 03:17:17;;;;;;;;;;;21.20;77.90;;;;;;5014167;28;20333;-96
2022/06/28 03:19:43;;;;;;;;;;;21.20;78.80;;;;;;5014667;28;20032;-95
2022/06/28 03:22:08;;;;;;;;;;;20.90;78.90;;;;;;5014007;28;19942;-95
2022/06/28 03:24:34;;;;;;;;;;;20.80;78.80;;;;;;5014033;28;20032;-96
2022/06/28 03:26:59;;;;;;;;;;;20.80;79.20;;;;;;5013851;28;20329;-96
2022/06/28 03:29:25;;;;;;;;;;;20.80;78.60;;;;;;5014259;28;19944;-96
2022/06/28 03:31:51;;;;;;;;;;;20.80;78.70;;;;;;4996394;28;20311;-96
2022/06/28 03:34:17;;;;;;;;;;;20.80;79.10;;;;;;5014334;28;20049;-96
2022/06/28 03:36:42;;;;;;;;;;;20.80;79.20;;;;;;5013894;28;19939;-95
2022/06/28 03:39:08;;;;;;;;;;;20.80;79.80;;;;;;5014236;28;20009;-96
2022/06/28 03:41:34;;;;;;;;;;;20.70;79.60;;;;;;5014140;28;19947;-96
2022/06/28 03:43:59;;;;;;;;;;;20.60;79.70;;;;;;5014196;28;20041;-96
2022/06/28 03:46:25;;;;;;;;;;;20.60;80.10;;;;;;5014149;28;20285;-96
2022/06/28 03:48:50;;;;;;;;;;;20.60;80.20;;;;;;5014536;28;20305;-95
2022/06/28 03:51:16;;;;;;;;;;;20.60;79.90;;;;;;5014460;28;20039;-96
2022/06/28 03:53:42;;;;;;;;;;;20.60;78.80;;;;;;5014358;28;19962;-96
2022/06/28 03:56:07;;;;;;;;;;;20.70;78.30;;;;;;5014065;28;20299;-96
2022/06/28 03:58:33;;;;;;;;;;;20.70;78.80;;;;;;5014565;28;19946;-95
2022/06/28 04:00:59;;;;;;;;;;;20.80;78.00;;;;;;5014339;28;20306;-95
2022/06/28 04:03:25;;;;;;;;;;;20.90;78.50;;;;;;5014251;28;19941;-95
2022/06/28 04:05:50;;;;;;;;;;;21.00;77.30;;;;;;5014514;28;19938;-96
2022/06/28 04:08:16;;;;;;;;;;;21.10;76.90;;;;;;5014131;28;19989;-96
2022/06/28 04:10:42;;;;;;;;;;;21.10;76.30;;;;;;5013790;28;19957;-95
2022/06/28 04:13:07;;;;;;;;;;;21.20;78.30;;;;;;5013835;28;19950;-96
2022/06/28 04:15:34;;;;;;;;;;;21.20;76.30;;;;;;5016976;28;20065;-96
2022/06/28 04:18:00;;;;;;;;;;;21.20;75.60;;;;;;5017156;28;19937;-96
2022/06/28 04:20:26;;;;;;;;;;;21.30;75.90;;;;;;5017310;28;19949;-95
2022/06/28 04:22:51;;;;;;;;;;;21.40;77.00;;;;;;5017274;28;19943;-96
2022/06/28 04:25:17;;;;;;;;;;;21.50;77.60;;;;;;5016956;28;19981;-95
2022/06/28 04:27:42;;;;;;;;;;;21.50;77.00;;;;;;5017166;28;20303;-96
2022/06/28 04:30:08;;;;;;;;;;;21.50;75.60;;;;;;4999302;28;20396;-96
2022/06/28 04:32:34;;;;;;;;;;;21.50;75.80;;;;;;5016751;28;19945;-96
2022/06/28 04:34:59;;;;;;;;;;;21.60;75.80;;;;;;5017019;28;19972;-96
2022/06/28 04:37:25;;;;;;;;;;;21.60;74.90;;;;;;5016697;28;20007;-95
2022/06/28 04:39:51;;;;;;;;;;;21.70;74.90;;;;;;5017199;28;19987;-95
2022/06/28 04:42:18;;;;;;;;;;;21.70;75.00;;;;;;5016652;28;19945;-95
2022/06/28 04:44:43;;;;;;;;;;;21.80;75.90;;;;;;5017144;28;20028;-95
2022/06/28 04:47:09;;;;;;;;;;;22.00;76.30;;;;;;5016536;28;20047;-95
2022/06/28 04:49:35;;;;;;;;;;;22.00;77.40;;;;;;5017102;28;20003;-96
2022/06/28 04:52:00;;;;;;;;;;;22.10;77.60;;;;;;4998679;28;19947;-96
2022/06/28 04:54:26;;;;;;;;;;;22.10;78.20;;;;;;5016658;28;19941;-95
2022/06/28 04:56:52;;;;;;;;;;;22.10;77.20;;;;;;4998460;28;19954;-95
2022/06/28 04:59:18;;;;;;;;;;;22.10;76.40;;;;;;5016239;28;20033;-96
2022/06/28 05:01:43;;;;;;;;;;;22.20;73.60;;;;;;5016220;28;19939;-94
2022/06/28 05:04:09;;;;;;;;;;;22.40;73.60;;;;;;4998632;28;20513;-96
2022/06/28 05:06:34;;;;;;;;;;;22.60;72.90;;;;;;5016214;28;20302;-95
2022/06/28 05:09:00;;;;;;;;;;;22.80;70.70;;;;;;5016685;28;19992;-95
2022/06/28 05:11:26;;;;;;;;;;;22.90;72.50;;;;;;5016187;28;19946;-96
2022/06/28 05:13:51;;;;;;;;;;;23.00;73.60;;;;;;5015812;28;19965;-95
2022/06/28 05:16:17;;;;;;;;;;;23.00;72.80;;;;;;5016119;28;20424;-96
2022/06/28 05:18:42;;;;;;;;;;;23.10;72.40;;;;;;5016217;28;19944;-95
2022/06/28 05:21:08;;;;;;;;;;;23.10;72.10;;;;;;5015957;28;19983;-96
2022/06/28 05:23:36;;;;;;;;;;;23.20;71.40;;;;;;5015704;28;19993;-96
2022/06/28 05:26:02;;;;;;;;;;;23.30;71.50;;;;;;5015465;28;19965;-96
2022/06/28 05:28:27;;;;;;;;;;;23.30;72.50;;;;;;4997947;28;20028;-96
2022/06/28 05:30:54;;;;;;;;;;;23.50;72.80;;;;;;5015170;28;20017;-96
2022/06/28 05:33:20;;;;;;;;;;;23.50;72.20;;;;;;4999251;28;19954;-96
2022/06/28 05:35:45;;;;;;;;;;;23.60;72.40;;;;;;5017286;28;19986;-96
2022/06/28 05:40:47;;;;;;;;;;;23.80;73.00;;;;;;5598672;22;19978;-96
2022/06/28 05:43:13;;;;;;;;;;;23.90;71.20;;;;;;5032757;28;19975;-96
2022/06/28 05:45:39;;;;;;;;;;;24.10;69.10;;;;;;5032678;28;19984;-96
2022/06/28 05:48:05;;;;;;;;;;;24.30;69.20;;;;;;5031004;28;19946;-96
2022/06/28 05:50:31;;;;;;;;;;;24.50;69.00;;;;;;5009320;28;20327;-96
2022/06/28 05:52:56;;;;;;;;;;;24.60;69.10;;;;;;5025166;28;20009;-96
2022/06/28 05:55:22;;;;;;;;;;;24.70;68.60;;;;;;5007441;28;20344;-96
2022/06/28 05:57:51;;;;;;;;;;;24.90;68.10;;;;;;5010317;28;20044;-96
2022/06/28 06:00:17;;;;;;;;;;;25.00;68.70;;;;;;5014897;28;19948;-96
2022/06/28 06:02:44;;;;;;;;;;;25.00;68.60;;;;;;5018523;28;19975;-96
2022/06/28 06:05:11;;;;;;;;;;;25.10;67.00;;;;;;5018267;28;19943;-96
2022/06/28 06:07:38;;;;;;;;;;;25.10;66.80;;;;;;5017423;28;19981;-96
2022/06/28 06:10:04;;;;;;;;;;;25.30;66.70;;;;;;5016087;28;20072;-96
2022/06/28 06:12:31;;;;;;;;;;;25.30;65.70;;;;;;5017843;28;19946;-96
2022/06/28 06:30:28;;;;;;;;;;;26.10;62.60;;;;;;5979892;23;19985;-96
2022/06/28 06:32:54;;;;;;;;;;;26.20;62.70;;;;;;5045384;28;19951;-96
2022/06/28 06:35:20;;;;;;;;;;;26.40;62.50;;;;;;5035703;28;20023;-95
2022/06/28 06:37:45;;;;;;;;;;;26.60;63.30;;;;;;5034344;28;19976;-96
2022/06/28 06:40:11;;;;;;;;;;;26.80;62.50;;;;;;5033915;28;19963;-96
2022/06/28 06:42:37;;;;;;;;;;;27.00;60.70;;;;;;5034440;28;19940;-95
2022/06/28 06:45:03;;;;;;;;;;;27.20;61.70;;;;;;5016775;28;20068;-96
2022/06/28 06:47:28;;;;;;;;;;;27.40;61.20;;;;;;5034798;28;19948;-96
2022/06/28 06:49:54;;;;;;;;;;;27.60;61.40;;;;;;5034734;28;19938;-96
2022/06/28 06:52:19;;;;;;;;;;;27.80;59.70;;;;;;5034464;28;19945;-96
2022/06/28 06:54:45;;;;;;;;;;;28.00;58.50;;;;;;5018561;28;19967;-96
2022/06/28 06:57:11;;;;;;;;;;;28.20;58.60;;;;;;5036867;28;20315;-95
2022/06/28 06:59:36;;;;;;;;;;;28.30;59.80;;;;;;5017569;28;19955;-96
2022/06/28 07:02:02;;;;;;;;;;;28.30;58.90;;;;;;5034839;28;19940;-96
2022/06/28 07:04:27;;;;;;;;;;;28.50;58.70;;;;;;5035265;28;19945;-96
2022/06/28 07:06:55;;;;;;;;;;;28.50;59.20;;;;;;5034880;28;19991;-96
2022/06/28 07:09:22;;;;;;;;;;;28.70;57.70;;;;;;5035148;28;19941;-96
2022/06/28 07:11:48;;;;;;;;;;;28.70;57.90;;;;;;5036224;28;19963;-96
2022/06/28 07:14:14;;;;;;;;;;;28.80;57.60;;;;;;5035583;28;20483;-96
2022/06/28 07:16:39;;;;;;;;;;;28.90;57.80;;;;;;5018273;28;20295;-96
2022/06/28 07:19:05;;;;;;;;;;;28.90;58.60;;;;;;5035655;28;19937;-94
2022/06/28 07:21:31;;;;;;;;;;;29.00;59.50;;;;;;5033782;28;19991;-95
2022/06/28 07:23:56;;;;;;;;;;;29.00;58.80;;;;;;5033919;28;19987;-95
2022/06/28 07:26:22;;;;;;;;;;;29.00;59.20;;;;;;5033085;28;19970;-94
2022/06/28 07:28:47;;;;;;;;;;;29.00;59.50;;;;;;5033653;28;20017;-95
2022/06/28 07:31:15;;;;;;;;;;;29.00;58.80;;;;;;5033460;28;20434;-94
2022/06/28 07:33:40;;;;;;;;;;;29.10;58.70;;;;;;5033438;28;20002;-95
2022/06/28 07:36:06;;;;;;;;;;;29.20;58.80;;;;;;5033402;28;19943;-95
2022/06/28 07:38:32;;;;;;;;;;;29.10;59.90;;;;;;5033325;28;19945;-95
2022/06/28 07:40:58;;;;;;;;;;;29.20;60.00;;;;;;5033142;28;19949;-96
2022/06/28 07:43:25;;;;;;;;;;;29.20;57.20;;;;;;5033696;28;20320;-94
2022/06/28 07:45:51;;;;;;;;;;;29.30;55.20;;;;;;5015011;28;19999;-95
2022/06/28 07:48:18;;;;;;;;;;;29.40;54.90;;;;;;5033308;28;19941;-95
2022/06/28 07:53:28;;;;;;;;;;;29.70;54.10;;;;;;5037166;28;19982;-95
2022/06/28 07:55:53;;;;;;;;;;;29.90;54.00;;;;;;5037097;28;20405;-95
2022/06/28 07:58:19;;;;;;;;;;;30.20;54.00;;;;;;5037576;28;19952;-96
2022/06/28 08:00:45;;;;;;;;;;;30.20;53.90;;;;;;5019553;28;19946;-96
2022/06/28 08:03:11;;;;;;;;;;;30.40;53.10;;;;;;5037217;28;19964;-95
2022/06/28 08:05:37;;;;;;;;;;;30.50;51.90;;;;;;5037165;28;19988;-95
2022/06/28 08:08:02;;;;;;;;;;;30.60;52.70;;;;;;5037201;28;19979;-95
2022/06/28 08:10:28;;;;;;;;;;;30.70;51.60;;;;;;5019076;28;19950;-94
2022/06/28 08:12:54;;;;;;;;;;;30.80;49.90;;;;;;5036752;28;19942;-94
2022/06/28 08:15:19;;;;;;;;;;;30.90;50.10;;;;;;5036661;28;19967;-95
2022/06/28 08:17:45;;;;;;;;;;;31.00;49.20;;;;;;5036286;28;19999;-94
2022/06/28 08:20:10;;;;;;;;;;;31.20;47.70;;;;;;5036652;28;19938;-95
2022/06/28 08:22:36;;;;;;;;;;;31.30;48.20;;;;;;5036138;28;19943;-95
2022/06/28 08:25:02;;;;;;;;;;;31.50;51.60;;;;;;5018789;28;19944;-95
2022/06/28 08:27:27;;;;;;;;;;;31.60;48.20;;;;;;5019057;28;19949;-95
2022/06/28 08:29:53;;;;;;;;;;;31.70;48.70;;;;;;5018685;28;19971;-94
2022/06/28 08:32:20;;;;;;;;;;;31.90;49.20;;;;;;5036461;28;20019;-94
2022/06/28 08:34:46;;;;;;;;;;;32.00;47.30;;;;;;5036604;28;20008;-96
2022/06/28 08:37:12;;;;;;;;;;;32.20;48.00;;;;;;5019020;28;19947;-94
2022/06/28 08:39:37;;;;;;;;;;;32.20;46.30;;;;;;5036505;28;20380;-96
2022/06/28 08:42:04;;;;;;;;;;;32.40;46.10;;;;;;5019164;28;19947;-96
2022/06/28 08:44:36;;;;;;;;;;;32.50;45.50;;;;;;5036335;28;19949;-95
2022/06/28 08:47:02;;;;;;;;;;;32.60;45.70;;;;;;5036429;28;19942;-95
2022/06/28 08:49:47;;;;;;;;;;;32.70;44.50;;;;;;5018914;28;19943;-95
2022/06/28 08:52:13;;;;;;;;;;;32.90;43.50;;;;;;5034310;28;20415;-95
2022/06/28 08:54:39;;;;;;;;;;;33.10;41.40;;;;;;5017654;28;19978;-96
2022/06/28 08:57:05;;;;;;;;;;;33.20;40.20;;;;;;5018284;28;20378;-95
2022/06/28 08:59:31;;;;;;;;;;;33.30;40.70;;;;;;5034793;28;19939;-94
2022/06/28 09:01:56;;;;;;;;;;;33.30;41.30;;;;;;5035980;28;19943;-94
2022/06/28 09:04:22;;;;;;;;;;;33.30;40.70;;;;;;5018105;28;19941;-95
2022/06/28 09:06:48;;;;;;;;;;;33.40;41.70;;;;;;5036108;28;20276;-94
2022/06/28 09:09:13;;;;;;;;;;;33.50;41.40;;;;;;5018032;28;19954;-94
2022/06/28 09:11:42;;;;;;;;;;;33.60;39.60;;;;;;5035832;28;19974;-94
2022/06/28 09:14:21;;;;;;;;;;;33.50;40.60;;;;;;5035691;28;20038;-96
2022/06/28 09:16:47;;;;;;;;;;;33.50;39.20;;;;;;5017928;28;19973;-94
2022/06/28 09:19:12;;;;;;;;;;;33.50;38.40;;;;;;5035895;28;19943;-95
2022/06/28 09:21:46;;;;;;;;;;;33.40;38.20;;;;;;5035670;28;20410;-96
2022/06/28 09:24:22;;;;;;;;;;;33.50;38.80;;;;;;5035866;28;20026;-95
2022/06/28 09:26:51;;;;;;;;;;;33.40;38.30;;;;;;5035472;28;19957;-94
2022/06/28 09:29:16;;;;;;;;;;;33.50;38.10;;;;;;5035545;28;19943;-95
2022/06/28 09:31:43;;;;;;;;;;;33.50;40.30;;;;;;5035311;28;19972;-95
2022/06/28 09:34:09;;;;;;;;;;;33.60;39.30;;;;;;5035642;28;20022;-94
2022/06/28 09:36:39;;;;;;;;;;;33.50;37.70;;;;;;5035421;28;19948;-94
2022/06/28 09:39:09;;;;;;;;;;;33.50;37.30;;;;;;5035609;28;20023;-95
2022/06/28 09:41:34;;;;;;;;;;;33.40;37.00;;;;;;5035140;28;19950;-95
2022/06/28 09:44:00;;;;;;;;;;;33.40;37.30;;;;;;5034877;28;20346;-95
2022/06/28 09:46:27;;;;;;;;;;;33.30;38.20;;;;;;5035288;28;19938;-95
2022/06/28 09:49:03;;;;;;;;;;;33.20;38.50;;;;;;5035518;28;19950;-95
2022/06/28 09:51:30;;;;;;;;;;;33.20;37.70;;;;;;5029635;28;19967;-94
2022/06/28 09:54:03;;;;;;;;;;;33.20;38.10;;;;;;5034434;28;19965;-94
2022/06/28 09:56:33;;;;;;;;;;;33.10;38.50;;;;;;5035096;28;19958;-95
2022/06/28 09:58:59;;;;;;;;;;;33.10;38.10;;;;;;5035041;28;19944;-95
2022/06/28 10:01:25;;;;;;;;;;;33.10;38.30;;;;;;5034988;28;19938;-94
2022/06/28 10:03:52;;;;;;;;;;;33.00;38.40;;;;;;5034526;28;19945;-94
2022/06/28 10:06:18;;;;;;;;;;;32.90;38.50;;;;;;5035013;28;19940;-95
2022/06/28 10:08:45;;;;;;;;;;;32.90;38.30;;;;;;5018988;28;19953;-95
2022/06/28 10:11:13;;;;;;;;;;;32.90;38.00;;;;;;5034328;28;20276;-95
2022/06/28 10:16:46;;;;;;;;;;;32.90;39.90;;;;;;5035146;28;19943;-95
2022/06/28 10:19:16;;;;;;;;;;;33.00;39.70;;;;;;5034821;28;19983;-95
2022/06/28 10:21:51;;;;;;;;;;;33.10;39.80;;;;;;5034396;28;20015;-95
2022/06/28 10:24:16;;;;;;;;;;;33.20;39.60;;;;;;5034553;28;19940;-95
2022/06/28 10:26:44;;;;;;;;;;;33.30;39.20;;;;;;5016475;28;19967;-96
2022/06/28 10:29:10;;;;;;;;;;;33.50;38.90;;;;;;5034551;28;20049;-95
2022/06/28 10:31:39;;;;;;;;;;;33.70;39.50;;;;;;5034287;28;20459;-96
2022/06/28 10:34:10;;;;;;;;;;;33.70;38.80;;;;;;5034599;28;20016;-95
2022/06/28 10:36:46;;;;;;;;;;;33.80;38.10;;;;;;5034292;28;19968;-95
2022/06/28 10:39:13;;;;;;;;;;;33.90;37.70;;;;;;5034861;28;19954;-96
2022/06/28 10:42:11;;;;;;;;;;;33.90;38.10;;;;;;5034154;28;19942;-95
2022/06/28 10:44:37;;;;;;;;;;;33.80;38.00;;;;;;4980065;28;19940;-95
2022/06/28 10:47:05;;;;;;;;;;;33.50;38.60;;;;;;5034130;28;20007;-95
2022/06/28 10:49:46;;;;;;;;;;;33.20;38.80;;;;;;5034441;28;19944;-95
2022/06/28 10:52:14;;;;;;;;;;;33.10;37.90;;;;;;5034430;28;19943;-94
2022/06/28 10:54:41;;;;;;;;;;;32.90;40.70;;;;;;5034157;28;19983;-96
2022/06/28 10:57:23;;;;;;;;;;;32.70;41.10;;;;;;5034040;28;20031;-95
2022/06/28 10:59:49;;;;;;;;;;;32.70;41.00;;;;;;5034254;28;19943;-95
2022/06/28 11:02:15;;;;;;;;;;;32.70;40.10;;;;;;5034245;28;19945;-95
2022/06/28 11:04:41;;;;;;;;;;;32.90;39.20;;;;;;5034232;28;20323;-95
2022/06/28 11:07:21;;;;;;;;;;;33.00;39.80;;;;;;5033945;28;19997;-96
2022/06/28 11:10:04;;;;;;;;;;;32.90;39.50;;;;;;5034155;28;20384;-94
2022/06/28 11:12:30;;;;;;;;;;;33.00;40.10;;;;;;5034149;28;20413;-96
2022/06/28 11:14:57;;;;;;;;;;;32.90;40.70;;;;;;5034370;28;19968;-95
2022/06/28 11:17:26;;;;;;;;;;;32.90;40.20;;;;;;5016354;28;20027;-95
2022/06/28 11:20:12;;;;;;;;;;;32.90;40.20;;;;;;5033822;28;19946;-95
2022/06/28 11:22:39;;;;;;;;;;;32.90;39.70;;;;;;5033159;28;19943;-95
2022/06/28 11:25:06;;;;;;;;;;;32.90;39.50;;;;;;5038101;28;20037;-96
2022/06/28 11:27:33;;;;;;;;;;;32.80;39.20;;;;;;5038137;28;19934;-95
2022/06/28 11:30:01;;;;;;;;;;;32.70;39.50;;;;;;5037810;28;20356;-95
2022/06/28 11:32:30;;;;;;;;;;;32.60;39.40;;;;;;5037092;28;19984;-95
2022/06/28 11:34:57;;;;;;;;;;;32.50;39.60;;;;;;5037736;28;20016;-95
2022/06/28 11:37:23;;;;;;;;;;;32.40;40.20;;;;;;5037495;28;19945;-95
2022/06/28 11:39:53;;;;;;;;;;;32.20;40.30;;;;;;5037213;28;19950;-95
2022/06/28 11:42:18;;;;;;;;;;;32.20;40.70;;;;;;5019430;28;19955;-95
2022/06/28 11:44:45;;;;;;;;;;;32.10;40.90;;;;;;5037418;28;19944;-95
2022/06/28 11:47:11;;;;;;;;;;;32.00;41.50;;;;;;5037732;28;19940;-95
2022/06/28 11:49:36;;;;;;;;;;;31.70;45.00;;;;;;5037557;28;20466;-95
2022/06/28 11:52:02;;;;;;;;;;;31.60;45.70;;;;;;5037104;28;20354;-94
2022/06/28 11:54:28;;;;;;;;;;;31.40;44.50;;;;;;5019204;28;19962;-95
2022/06/28 11:56:54;;;;;;;;;;;31.20;46.00;;;;;;5037062;28;19942;-95
2022/06/28 11:59:20;;;;;;;;;;;31.00;45.30;;;;;;5019415;28;20032;-95
2022/06/28 12:01:46;;;;;;;;;;;30.90;46.90;;;;;;5037013;28;20396;-95
2022/06/28 12:04:19;;;;;;;;;;;30.80;46.60;;;;;;5036886;28;19992;-94
2022/06/28 12:06:44;;;;;;;;;;;30.60;46.50;;;;;;5037217;28;19949;-94
2022/06/28 12:09:10;;;;;;;;;;;30.40;46.80;;;;;;5037174;28;19943;-95
2022/06/28 12:11:39;;;;;;;;;;;30.30;46.40;;;;;;5037225;28;19936;-94
2022/06/28 12:14:07;;;;;;;;;;;30.30;47.10;;;;;;5036938;28;20420;-95
2022/06/28 12:16:34;;;;;;;;;;;30.20;47.10;;;;;;5036559;28;19946;-96
2022/06/28 12:19:00;;;;;;;;;;;30.20;47.20;;;;;;5036679;28;20417;-95
2022/06/28 12:21:26;;;;;;;;;;;30.20;47.40;;;;;;5036547;28;19949;-95
2022/06/28 12:23:56;;;;;;;;;;;30.20;47.20;;;;;;5036621;28;19950;-95
2022/06/28 12:26:35;;;;;;;;;;;30.10;48.30;;;;;;5036782;28;19965;-95
2022/06/28 12:29:01;;;;;;;;;;;30.00;48.80;;;;;;5036692;28;19936;-95
2022/06/28 12:31:27;;;;;;;;;;;29.90;49.90;;;;;;5036428;28;20031;-94
2022/06/28 12:33:52;;;;;;;;;;;29.90;51.30;;;;;;5036402;28;19944;-95
2022/06/28 12:36:18;;;;;;;;;;;29.90;52.90;;;;;;5035567;28;19944;-95
2022/06/28 12:38:43;;;;;;;;;;;29.80;56.60;;;;;;5018659;28;19937;-94
2022/06/28 12:41:09;;;;;;;;;;;29.70;57.90;;;;;;5018535;28;20351;-94
2022/06/28 12:43:34;;;;;;;;;;;29.80;59.00;;;;;;5036186;28;20292;-94
2022/06/28 12:46:00;;;;;;;;;;;29.80;60.30;;;;;;5036286;28;19943;-93
2022/06/28 12:48:25;;;;;;;;;;;29.90;61.20;;;;;;5036348;28;19936;-94
2022/06/28 12:50:51;;;;;;;;;;;29.90;61.90;;;;;;5018243;28;20378;-94
2022/06/28 12:53:17;;;;;;;;;;;30.10;62.00;;;;;;5036264;28;20033;-94
2022/06/28 12:55:43;;;;;;;;;;;30.20;61.90;;;;;;5035865;28;20327;-96
2022/06/28 12:58:08;;;;;;;;;;;30.30;62.30;;;;;;5036151;28;19983;-95
2022/06/28 13:00:34;;;;;;;;;;;30.40;61.80;;;;;;5035802;28;19990;-95
2022/06/28 13:02:59;;;;;;;;;;;30.40;61.30;;;;;;5036126;28;19992;-94
2022/06/28 13:05:25;;;;;;;;;;;30.50;62.20;;;;;;5035759;28;19946;-95
2022/06/28 13:07:51;;;;;;;;;;;30.60;62.50;;;;;;5035957;28;19951;-96
2022/06/28 13:10:16;;;;;;;;;;;30.80;61.90;;;;;;5035715;28;19992;-94
2022/06/28 13:12:42;;;;;;;;;;;31.20;61.90;;;;;;5035675;28;19948;-94
2022/06/28 13:15:08;;;;;;;;;;;31.50;60.10;;;;;;5035621;28;19984;-95
2022/06/28 13:17:34;;;;;;;;;;;31.90;59.30;;;;;;5035441;28;19961;-94
2022/06/28 13:20:02;;;;;;;;;;;32.10;59.90;;;;;;5017899;28;20407;-95
2022/06/28 13:22:27;;;;;;;;;;;31.80;59.40;;;;;;5035658;28;20035;-93
2022/06/28 13:24:53;;;;;;;;;;;31.40;59.10;;;;;;5035449;28;20480;-95
2022/06/28 13:27:19;;;;;;;;;;;31.30;59.10;;;;;;5035639;28;20402;-95
2022/06/28 13:29:44;;;;;;;;;;;31.20;60.00;;;;;;5035476;28;19961;-94
2022/06/28 13:32:10;;;;;;;;;;;31.20;60.40;;;;;;5035373;28;20348;-94
2022/06/28 13:34:35;;;;;;;;;;;31.30;60.20;;;;;;5035761;28;20043;-95
2022/06/28 13:37:02;;;;;;;;;;;31.20;61.20;;;;;;5035007;28;20078;-94
2022/06/28 13:39:28;;;;;;;;;;;31.20;61.00;;;;;;5035595;28;19957;-94
2022/06/28 13:41:54;;;;;;;;;;;31.00;61.30;;;;;;5035276;28;19940;-94
2022/06/28 13:44:20;;;;;;;;;;;30.90;60.60;;;;;;5035835;28;19953;-95
2022/06/28 13:46:46;;;;;;;;;;;30.80;60.20;;;;;;5035255;28;19979;-94
2022/06/28 13:49:11;;;;;;;;;;;30.80;61.00;;;;;;5034988;28;19943;-95
2022/06/28 13:51:37;;;;;;;;;;;30.70;60.80;;;;;;5035434;28;19991;-94
2022/06/28 13:54:03;;;;;;;;;;;30.70;61.80;;;;;;5034978;28;19944;-94
2022/06/28 13:56:28;;;;;;;;;;;30.70;63.10;;;;;;5034913;28;19942;-94
2022/06/28 13:58:54;;;;;;;;;;;30.70;62.70;;;;;;5035064;28;19944;-95
2022/06/28 14:01:20;;;;;;;;;;;30.60;62.50;;;;;;5034880;28;19990;-94
2022/06/28 14:03:45;;;;;;;;;;;30.70;62.50;;;;;;5034984;28;19952;-94
2022/06/28 14:06:11;;;;;;;;;;;30.70;63.00;;;;;;5035478;28;19939;-94
2022/06/28 14:08:37;;;;;;;;;;;30.60;63.40;;;;;;5034842;28;20393;-95
2022/06/28 14:11:02;;;;;;;;;;;30.50;63.40;;;;;;5034785;28;19936;-95
2022/06/28 14:13:28;;;;;;;;;;;30.50;63.80;;;;;;5034764;28;20342;-95
2022/06/28 14:15:54;;;;;;;;;;;30.60;63.40;;;;;;5034477;28;19956;-95
2022/06/28 14:18:20;;;;;;;;;;;30.60;62.50;;;;;;5034529;28;19989;-94
2022/06/28 14:20:45;;;;;;;;;;;30.60;62.70;;;;;;5034602;28;19949;-94
2022/06/28 14:23:11;;;;;;;;;;;30.70;62.50;;;;;;5034555;28;20003;-95
2022/06/28 14:25:37;;;;;;;;;;;30.80;61.70;;;;;;5034376;28;19954;-94
2022/06/28 14:28:02;;;;;;;;;;;30.90;61.80;;;;;;5034313;28;19950;-95
2022/06/28 14:30:28;;;;;;;;;;;30.90;61.00;;;;;;5044516;23;19946;-95
2022/06/28 14:32:54;;;;;;;;;;;31.00;60.60;;;;;;5074227;28;19943;-96
2022/06/28 14:35:19;;;;;;;;;;;31.20;60.40;;;;;;5073847;28;20312;-95
2022/06/28 14:37:45;;;;;;;;;;;31.20;59.60;;;;;;5074087;28;19940;-94
2022/06/28 14:40:11;;;;;;;;;;;31.20;57.30;;;;;;5074000;28;19936;-94
2022/06/28 14:42:37;;;;;;;;;;;31.30;56.20;;;;;;5073804;28;19954;-94